createdAt,value
2023-05-25T00:01:38.668Z,22.92
2023-05-25T00:04:10.491Z,27.70
2023-05-25T00:06:41.333Z,25.90
2023-05-25T00:09:10.408Z,22.98
2023-05-25T00:11:39.562Z,27.45
2023-05-25T00:14:08.819Z,26.30
2023-05-25T00:16:38.076Z,26.23
2023-05-25T00:19:10.774Z,27.08
2023-05-25T00:21:41.528Z,26.17
2023-05-25T00:24:10.663Z,26.63
2023-05-25T00:26:39.508Z,29.13
2023-05-25T00:29:08.623Z,26.38
2023-05-25T00:31:37.396Z,25.90
2023-05-25T00:34:06.605Z,29.38
2023-05-25T00:36:35.339Z,30.05
2023-05-25T00:39:07.169Z,25.80
2023-05-25T00:41:41.473Z,30.98
2023-05-25T00:44:10.576Z,29.88
2023-05-25T00:46:39.838Z,28.33
2023-05-25T00:49:09.237Z,33.35
2023-05-25T00:51:38.169Z,32.95
2023-05-25T00:54:10.090Z,31.50
2023-05-25T00:56:43.530Z,32.45
2023-05-25T00:59:18.637Z,35.30
2023-05-25T01:01:49.807Z,33.28
2023-05-25T01:04:22.588Z,34.60
2023-05-25T01:06:53.509Z,38.67
2023-05-25T01:09:26.015Z,35.28
2023-05-25T01:11:56.774Z,34.30
2023-05-25T01:14:27.262Z,34.33
2023-05-25T01:16:59.908Z,32.80
2023-05-25T01:19:28.939Z,39.10
2023-05-25T01:22:06.322Z,41.00
2023-05-25T01:24:41.932Z,38.65
2023-05-25T01:27:23.177Z,38.65
2023-05-25T01:29:53.603Z,37.83
2023-05-25T01:32:25.204Z,38.88
2023-05-25T01:34:59.007Z,40.58
2023-05-25T01:37:29.552Z,37.20
2023-05-25T01:39:58.995Z,38.75
2023-05-25T01:42:27.753Z,36.53
2023-05-25T01:44:57.151Z,41.22
2023-05-25T01:47:38.546Z,37.30
2023-05-25T01:50:16.836Z,36.95
2023-05-25T01:52:56.381Z,33.22
2023-05-25T01:55:30.056Z,34.33
2023-05-25T01:58:02.083Z,39.75
2023-05-25T02:00:33.542Z,34.05
2023-05-25T02:03:03.592Z,36.58
2023-05-25T02:05:33.281Z,38.35
2023-05-25T02:08:03.816Z,35.05
2023-05-25T02:10:34.465Z,33.10
2023-05-25T02:13:03.300Z,34.88
2023-05-25T02:15:34.704Z,35.10
2023-05-25T02:18:05.935Z,35.17
2023-05-25T02:20:35.161Z,37.65
2023-05-25T02:23:06.065Z,37.97
2023-05-25T02:25:35.141Z,38.17
2023-05-25T02:28:05.125Z,33.00
2023-05-25T02:30:34.534Z,34.22
2023-05-25T02:33:03.435Z,37.17
2023-05-25T02:35:32.550Z,41.58
2023-05-25T02:38:01.886Z,32.15
2023-05-25T02:40:32.433Z,33.78
2023-05-25T02:43:01.186Z,32.92
2023-05-25T02:45:30.338Z,33.88
2023-05-25T02:47:59.362Z,34.35
2023-05-25T02:50:29.229Z,35.03
2023-05-25T02:52:59.867Z,37.45
2023-05-25T02:55:28.890Z,33.88
2023-05-25T02:58:00.065Z,33.60
2023-05-25T03:00:46.916Z,32.35
2023-05-25T03:03:16.216Z,32.25
2023-05-25T03:05:46.177Z,38.75
2023-05-25T03:08:15.017Z,36.15
2023-05-25T03:10:44.489Z,34.55
2023-05-25T03:13:15.330Z,37.78
2023-05-25T03:15:44.926Z,39.20
2023-05-25T03:18:13.984Z,40.38
2023-05-25T03:20:44.122Z,34.50
2023-05-25T03:23:12.911Z,35.13
2023-05-25T03:25:42.276Z,37.17
2023-05-25T03:28:12.028Z,36.83
2023-05-25T03:30:45.854Z,34.05
2023-05-25T03:33:15.567Z,33.65
2023-05-25T03:35:48.922Z,35.00
2023-05-25T03:38:18.024Z,34.40
2023-05-25T03:40:47.576Z,37.95
2023-05-25T03:43:16.403Z,34.88
2023-05-25T03:45:49.506Z,35.25
2023-05-25T03:48:18.912Z,36.35
2023-05-25T03:50:49.078Z,36.95
2023-05-25T03:53:18.181Z,35.65
2023-05-25T03:55:51.975Z,34.55
2023-05-25T03:58:20.962Z,35.75
2023-05-25T04:00:51.852Z,33.42
2023-05-25T04:03:21.166Z,34.42
2023-05-25T04:05:50.383Z,36.03
2023-05-25T04:08:20.712Z,36.13
2023-05-25T04:10:50.021Z,35.40
2023-05-25T04:13:18.776Z,36.78
2023-05-25T04:15:47.788Z,34.08
2023-05-25T04:18:24.509Z,36.28
2023-05-25T04:20:55.538Z,32.97
2023-05-25T04:23:24.954Z,32.25
2023-05-25T04:25:55.495Z,40.60
2023-05-25T04:28:24.593Z,37.30
2023-05-25T04:31:00.635Z,34.67
2023-05-25T04:34:06.022Z,36.78
2023-05-25T04:36:43.278Z,36.55
2023-05-25T04:39:13.706Z,37.03
2023-05-25T04:41:48.538Z,41.13
2023-05-25T04:44:17.885Z,37.75
2023-05-25T04:46:50.602Z,38.17
2023-05-25T04:49:28.249Z,38.17
2023-05-25T04:51:57.330Z,37.45
2023-05-25T04:54:29.560Z,40.72
2023-05-25T04:57:01.795Z,36.05
2023-05-25T04:59:32.776Z,38.85
2023-05-25T05:02:02.547Z,36.55
2023-05-25T05:04:32.698Z,33.60
2023-05-25T05:07:01.789Z,36.13
2023-05-25T05:09:33.271Z,33.08
2023-05-25T05:12:03.823Z,34.60
2023-05-25T05:14:38.068Z,35.05
2023-05-25T05:17:07.518Z,33.25
2023-05-25T05:19:37.733Z,37.58
2023-05-25T05:22:09.908Z,35.17
2023-05-25T05:24:40.044Z,31.23
2023-05-25T05:27:09.233Z,35.03
2023-05-25T05:29:44.485Z,34.25
2023-05-25T05:32:13.523Z,34.25
2023-05-25T05:34:43.698Z,32.35
2023-05-25T05:37:25.490Z,34.08
2023-05-25T05:39:54.455Z,32.95
2023-05-25T05:42:23.520Z,31.67
2023-05-25T05:44:52.322Z,37.15
2023-05-25T05:47:21.419Z,35.85
2023-05-25T05:49:51.705Z,33.30
2023-05-25T05:52:20.877Z,33.05
2023-05-25T05:54:49.633Z,29.63
2023-05-25T05:57:18.864Z,28.55
2023-05-25T05:59:48.025Z,32.33
2023-05-25T06:02:17.197Z,31.27
2023-05-25T06:04:46.461Z,31.40
2023-05-25T06:07:16.901Z,31.08
2023-05-25T06:09:45.734Z,31.88
2023-05-25T06:12:16.223Z,31.13
2023-05-25T06:14:49.221Z,33.05
2023-05-25T06:17:18.341Z,31.88
2023-05-25T06:19:47.218Z,28.75
2023-05-25T06:22:19.373Z,30.30
2023-05-25T06:24:48.156Z,32.55
2023-05-25T06:27:17.598Z,35.40
2023-05-25T06:29:46.599Z,31.02
2023-05-25T06:32:15.863Z,31.88
2023-05-25T06:34:45.054Z,31.13
2023-05-25T06:37:14.955Z,31.67
2023-05-25T06:39:45.607Z,29.95
2023-05-25T06:42:14.883Z,34.40
2023-05-25T06:44:53.653Z,32.42
2023-05-25T06:47:22.927Z,33.22
2023-05-25T06:49:51.847Z,33.05
2023-05-25T06:52:20.593Z,31.98
2023-05-25T06:54:51.132Z,29.13
2023-05-25T06:57:19.857Z,32.08
2023-05-25T06:59:48.983Z,34.08
2023-05-25T07:02:18.950Z,30.65
2023-05-25T07:04:48.387Z,30.63
2023-05-25T07:07:17.371Z,29.35
2023-05-25T07:09:47.541Z,31.52
2023-05-25T07:12:18.284Z,28.13
2023-05-25T07:14:48.533Z,31.35
2023-05-25T07:17:17.532Z,33.97
2023-05-25T07:19:46.683Z,29.58
2023-05-25T07:22:17.058Z,28.55
2023-05-25T07:24:46.385Z,30.48
2023-05-25T07:27:17.490Z,32.88
2023-05-25T07:29:46.807Z,27.77
2023-05-25T07:32:18.523Z,29.20
2023-05-25T07:34:47.615Z,29.00
2023-05-25T07:37:16.428Z,25.15
2023-05-25T07:39:45.954Z,27.08
2023-05-25T07:42:20.751Z,27.92
2023-05-25T07:44:51.486Z,32.88
2023-05-25T07:47:20.263Z,34.63
2023-05-25T07:49:49.291Z,30.83
2023-05-25T07:52:19.029Z,28.27
2023-05-25T07:54:48.302Z,31.73
2023-05-25T07:57:17.233Z,27.45
2023-05-25T07:59:46.581Z,29.83
2023-05-25T08:02:16.913Z,29.75
2023-05-25T08:04:46.094Z,34.28
2023-05-25T08:07:14.953Z,28.92
2023-05-25T08:09:44.031Z,33.22
2023-05-25T08:12:34.359Z,31.70
2023-05-25T08:15:02.011Z,29.77
2023-05-25T08:17:33.978Z,30.92
2023-05-25T08:20:06.308Z,29.38
2023-05-25T08:22:36.143Z,27.42
2023-05-25T08:25:06.887Z,27.58
2023-05-25T08:27:36.380Z,29.20
2023-05-25T08:30:07.565Z,28.25
2023-05-25T08:32:37.832Z,28.00
2023-05-25T08:35:08.078Z,28.10
2023-05-25T08:37:36.891Z,27.80
2023-05-25T08:40:08.111Z,24.08
2023-05-25T08:42:37.098Z,26.17
2023-05-25T08:45:12.480Z,29.45
2023-05-25T08:47:50.008Z,26.30
2023-05-25T08:50:20.197Z,24.02
2023-05-25T08:52:54.494Z,27.83
2023-05-25T08:55:31.155Z,27.35
2023-05-25T08:58:07.989Z,29.00
2023-05-25T09:00:45.841Z,23.77
2023-05-25T09:03:19.120Z,23.10
2023-05-25T09:05:49.665Z,24.30
2023-05-25T09:08:18.901Z,23.83
2023-05-25T09:10:49.403Z,23.50
2023-05-25T09:13:22.489Z,26.73
2023-05-25T09:15:53.209Z,25.45
2023-05-25T09:18:23.376Z,27.58
2023-05-25T09:20:52.928Z,23.55
2023-05-25T09:23:22.896Z,26.13
2023-05-25T09:25:54.752Z,25.67
2023-05-25T09:28:27.300Z,28.70
2023-05-25T09:30:57.658Z,26.98
2023-05-25T09:33:28.275Z,25.35
2023-05-25T09:35:57.697Z,23.65
2023-05-25T09:38:27.252Z,26.35
2023-05-25T09:40:57.552Z,24.80
2023-05-25T09:43:39.724Z,23.90
2023-05-25T09:46:10.811Z,23.10
2023-05-25T09:48:42.061Z,23.13
2023-05-25T09:51:12.607Z,24.75
2023-05-25T09:53:41.934Z,24.45
2023-05-25T09:56:12.552Z,24.70
2023-05-25T09:58:42.282Z,25.20
2023-05-25T10:01:12.321Z,22.35
2023-05-25T10:03:59.685Z,25.00
2023-05-25T10:06:34.344Z,22.33
2023-05-25T10:09:05.395Z,22.50
2023-05-25T10:11:37.276Z,21.38
2023-05-25T10:14:08.814Z,22.00
2023-05-25T10:16:42.278Z,21.17
2023-05-25T10:19:22.200Z,21.67
2023-05-25T10:21:59.886Z,20.17
2023-05-25T10:24:39.502Z,21.45
2023-05-25T10:27:26.351Z,23.52
2023-05-25T10:29:58.457Z,24.40
2023-05-25T10:32:29.413Z,18.92
2023-05-25T10:35:03.029Z,22.63
2023-05-25T10:37:34.754Z,18.58
2023-05-25T10:40:04.896Z,20.08
2023-05-25T10:42:36.989Z,19.58
2023-05-25T10:45:09.787Z,20.35
2023-05-25T10:47:42.829Z,19.38
2023-05-25T10:50:24.454Z,23.20
2023-05-25T10:53:04.347Z,17.10
2023-05-25T10:55:44.889Z,17.20
2023-05-25T10:58:19.693Z,19.52
2023-05-25T11:01:00.375Z,17.63
2023-05-25T11:03:54.880Z,16.85
2023-05-25T11:06:59.056Z,20.23
2023-05-25T11:09:31.495Z,17.63
2023-05-25T11:12:04.624Z,20.73
2023-05-25T11:14:38.365Z,18.48
2023-05-25T11:17:10.669Z,18.58
2023-05-25T11:19:50.724Z,18.25
2023-05-25T11:22:23.637Z,18.65
2023-05-25T11:24:55.030Z,17.33
2023-05-25T11:27:24.808Z,16.50
2023-05-25T11:29:56.573Z,16.02
2023-05-25T11:32:26.381Z,13.27
2023-05-25T11:34:57.516Z,16.13
2023-05-25T11:37:31.611Z,18.63
2023-05-25T11:40:01.053Z,15.48
2023-05-25T11:42:31.883Z,16.42
2023-05-25T11:45:03.989Z,15.43
2023-05-25T11:47:35.098Z,16.80
2023-05-25T11:50:05.858Z,15.27
2023-05-25T11:52:36.098Z,16.20
2023-05-25T11:55:13.362Z,15.98
2023-05-25T11:57:42.799Z,16.60
2023-05-25T12:00:13.769Z,15.10
2023-05-25T12:02:43.734Z,15.88
2023-05-25T12:05:13.037Z,14.77
2023-05-25T12:07:47.189Z,15.55
2023-05-25T12:10:17.818Z,15.18
2023-05-25T12:12:48.910Z,16.02
2023-05-25T12:15:22.468Z,17.70
2023-05-25T12:17:53.715Z,17.00
2023-05-25T12:20:23.611Z,14.88
2023-05-25T12:22:54.010Z,16.60
2023-05-25T12:25:24.542Z,16.73
2023-05-25T12:28:11.549Z,16.60
2023-05-25T12:30:40.790Z,16.05
2023-05-25T12:33:10.131Z,15.15
2023-05-25T12:35:50.712Z,17.95
2023-05-25T12:38:22.598Z,15.80
2023-05-25T12:41:07.665Z,17.58
2023-05-25T12:43:40.586Z,15.18
2023-05-25T12:46:09.988Z,15.40
2023-05-25T12:48:38.951Z,13.77
2023-05-25T12:51:10.072Z,16.08
2023-05-25T12:53:51.171Z,15.50
2023-05-25T12:56:20.302Z,14.40
2023-05-25T12:58:49.135Z,13.10
2023-05-25T13:01:18.323Z,16.58
2023-05-25T13:03:47.183Z,13.70
2023-05-25T13:06:16.294Z,13.57
2023-05-25T13:08:45.499Z,13.70
2023-05-25T13:11:16.905Z,14.32
2023-05-25T13:13:46.174Z,13.48
2023-05-25T13:16:15.242Z,15.15
2023-05-25T13:18:44.037Z,11.95
2023-05-25T13:21:13.138Z,12.57
2023-05-25T13:23:41.858Z,11.00
2023-05-25T13:26:10.994Z,11.23
2023-05-25T13:28:41.175Z,12.02
2023-05-25T13:31:10.388Z,11.35
2023-05-25T13:33:39.298Z,11.55
2023-05-25T13:36:09.195Z,10.95
2023-05-25T13:38:39.082Z,9.40
2023-05-25T13:41:08.524Z,11.38
2023-05-25T13:43:38.049Z,10.52
2023-05-25T13:46:11.526Z,10.93
2023-05-25T13:48:47.443Z,10.88
2023-05-25T13:51:17.248Z,11.23
2023-05-25T13:53:46.456Z,13.35
2023-05-25T13:56:16.054Z,11.63
2023-05-25T13:58:44.817Z,12.25
2023-05-25T14:01:15.319Z,10.70
2023-05-25T14:03:44.292Z,10.23
2023-05-25T14:06:13.742Z,10.95
2023-05-25T14:08:42.569Z,11.13
2023-05-25T14:11:11.655Z,9.45
2023-05-25T14:13:40.440Z,12.75
2023-05-25T14:16:10.004Z,9.98
2023-05-25T14:18:40.130Z,10.55
2023-05-25T14:21:10.954Z,10.57
2023-05-25T14:23:39.898Z,11.43
2023-05-25T14:26:08.988Z,10.98
2023-05-25T14:28:37.756Z,11.35
2023-05-25T14:31:07.066Z,10.20
2023-05-25T14:33:42.852Z,13.88
2023-05-25T14:36:12.209Z,12.07
2023-05-25T14:38:40.977Z,10.90
2023-05-25T14:41:10.110Z,11.05
2023-05-25T14:43:38.917Z,10.30
2023-05-25T14:46:08.779Z,9.90
2023-05-25T14:48:39.138Z,10.35
2023-05-25T14:51:08.293Z,10.45
2023-05-25T14:53:37.014Z,9.88
2023-05-25T14:56:08.443Z,10.18
2023-05-25T14:58:38.524Z,10.63
2023-05-25T15:01:07.549Z,13.55
2023-05-25T15:03:36.522Z,12.38
2023-05-25T15:06:08.216Z,12.10
2023-05-25T15:08:37.798Z,10.60
2023-05-25T15:11:06.899Z,14.43
2023-05-25T15:13:35.997Z,15.02
2023-05-25T15:16:05.799Z,15.05
2023-05-25T15:18:34.552Z,11.10
2023-05-25T15:21:03.614Z,12.25
2023-05-25T15:23:33.781Z,11.48
2023-05-25T15:26:04.620Z,12.13
2023-05-25T15:28:33.599Z,14.50
2023-05-25T15:31:03.592Z,15.15
2023-05-25T15:33:51.589Z,15.00
2023-05-25T15:36:21.721Z,14.15
2023-05-25T15:38:53.278Z,16.88
2023-05-25T15:41:23.353Z,14.35
2023-05-25T15:43:57.976Z,12.00
2023-05-25T15:46:27.868Z,12.05
2023-05-25T15:48:56.931Z,13.00
2023-05-25T15:51:26.034Z,14.07
2023-05-25T15:53:56.273Z,16.73
2023-05-25T15:56:26.404Z,12.13
2023-05-25T15:58:55.238Z,12.90
2023-05-25T16:01:24.273Z,12.93
2023-05-25T16:03:53.087Z,13.40
2023-05-25T16:06:22.215Z,15.18
2023-05-25T16:08:50.962Z,12.77
2023-05-25T16:11:21.537Z,13.30
2023-05-25T16:13:50.417Z,13.85
2023-05-25T16:16:20.140Z,12.15
2023-05-25T16:18:49.174Z,12.20
2023-05-25T16:21:18.480Z,15.10
2023-05-25T16:23:47.240Z,13.65
2023-05-25T16:26:16.405Z,11.32
2023-05-25T16:28:46.495Z,17.45
2023-05-25T16:31:16.664Z,15.75
2023-05-25T16:33:46.349Z,12.55
2023-05-25T16:36:15.478Z,12.50
2023-05-25T16:38:44.265Z,12.77
2023-05-25T16:41:13.518Z,12.38
2023-05-25T16:43:42.230Z,15.75
2023-05-25T16:46:12.665Z,11.32
2023-05-25T16:48:41.558Z,13.75
2023-05-25T16:51:15.031Z,14.20
2023-05-25T16:53:45.281Z,12.10
2023-05-25T16:56:14.409Z,14.40
2023-05-25T16:58:43.168Z,11.68
2023-05-25T17:01:19.602Z,13.48
2023-05-25T17:03:48.607Z,12.40
2023-05-25T17:06:17.754Z,14.32
2023-05-25T17:08:46.519Z,15.10
2023-05-25T17:11:15.595Z,13.23
2023-05-25T17:13:44.362Z,12.18
2023-05-25T17:16:13.452Z,13.63
2023-05-25T17:18:43.664Z,12.68
2023-05-25T17:21:12.909Z,17.48
2023-05-25T17:23:41.693Z,15.55
2023-05-25T17:26:10.754Z,11.52
2023-05-25T17:28:39.615Z,11.05
2023-05-25T17:31:09.300Z,11.43
2023-05-25T17:33:39.056Z,14.20
2023-05-25T17:36:09.749Z,13.38
2023-05-25T17:38:38.500Z,12.07
2023-05-25T17:41:07.716Z,11.23
2023-05-25T17:43:36.543Z,12.23
2023-05-25T17:46:06.495Z,14.02
2023-05-25T17:48:35.471Z,10.88
2023-05-25T17:51:05.006Z,12.25
2023-05-25T17:53:35.127Z,11.02
2023-05-25T17:56:04.383Z,12.13
2023-05-25T17:58:33.315Z,9.93
2023-05-25T18:01:02.481Z,13.00
2023-05-25T18:03:31.515Z,10.57
2023-05-25T18:06:00.794Z,12.98
2023-05-25T18:08:29.583Z,13.80
2023-05-25T18:11:00.013Z,15.07
2023-05-25T18:13:28.804Z,10.68
2023-05-25T18:15:58.046Z,11.38
2023-05-25T18:18:26.855Z,11.07
2023-05-25T18:20:56.133Z,10.70
2023-05-25T18:23:26.378Z,12.45
2023-05-25T18:25:55.559Z,12.63
2023-05-25T18:28:25.854Z,10.88
2023-05-25T18:30:55.008Z,15.10
2023-05-25T18:33:23.853Z,11.75
2023-05-25T18:35:53.087Z,54.88
2023-05-25T18:38:22.000Z,11.05
2023-05-25T18:40:51.160Z,12.27
2023-05-25T18:43:19.951Z,28.30
2023-05-25T18:45:50.413Z,29.10
2023-05-25T18:48:19.288Z,11.52
2023-05-25T18:50:48.396Z,13.13
2023-05-25T18:53:17.278Z,12.57
2023-05-25T18:55:46.474Z,13.35
2023-05-25T18:58:15.602Z,10.93
2023-05-25T19:00:44.693Z,11.05
2023-05-25T19:03:15.156Z,11.98
2023-05-25T19:05:44.491Z,11.32
2023-05-25T19:08:13.394Z,11.68
2023-05-25T19:10:42.717Z,11.27
2023-05-25T19:13:11.613Z,12.02
2023-05-25T19:15:40.748Z,10.95
2023-05-25T19:18:09.623Z,10.88
2023-05-25T19:20:40.135Z,11.80
2023-05-25T19:23:09.236Z,13.38
2023-05-25T19:25:38.396Z,13.57
2023-05-25T19:28:07.339Z,12.35
2023-05-25T19:30:36.410Z,11.23
2023-05-25T19:33:05.399Z,11.52
2023-05-25T19:35:34.539Z,13.82
2023-05-25T19:38:04.713Z,14.75
2023-05-25T19:40:34.105Z,13.57
2023-05-25T19:43:03.052Z,13.98
2023-05-25T19:45:32.251Z,12.45
2023-05-25T19:48:01.735Z,14.80
2023-05-25T19:50:31.707Z,12.73
2023-05-25T19:53:01.163Z,10.07
2023-05-25T19:55:32.240Z,13.32
2023-05-25T19:58:01.024Z,13.23
2023-05-25T20:00:30.108Z,11.93
2023-05-25T20:02:58.896Z,14.50
2023-05-25T20:05:28.425Z,12.20
2023-05-25T20:07:57.154Z,15.35
2023-05-25T20:10:26.223Z,11.20
2023-05-25T20:12:59.253Z,12.10
2023-05-25T20:15:29.296Z,11.70
2023-05-25T20:17:58.002Z,11.50
2023-05-25T20:20:27.182Z,13.07
2023-05-25T20:22:56.550Z,14.30
2023-05-25T20:25:25.812Z,13.45
2023-05-25T20:27:54.514Z,13.38
2023-05-25T20:30:25.017Z,11.45
2023-05-25T20:32:53.989Z,12.80
2023-05-25T20:35:23.116Z,12.10
2023-05-25T20:37:52.097Z,14.50
2023-05-25T20:40:21.429Z,12.30
2023-05-25T20:42:50.293Z,12.90
2023-05-25T20:45:19.544Z,11.52
2023-05-25T20:47:59.201Z,12.30
2023-05-25T20:50:28.669Z,13.98
2023-05-25T20:52:58.139Z,12.05
2023-05-25T20:55:27.456Z,12.55
2023-05-25T20:57:57.081Z,12.15
2023-05-25T21:00:26.168Z,12.02
2023-05-25T21:02:56.379Z,12.18
2023-05-25T21:05:25.571Z,13.27
2023-05-25T21:07:54.618Z,11.88
2023-05-25T21:10:23.891Z,13.27
2023-05-25T21:12:52.704Z,11.85
2023-05-25T21:15:21.838Z,12.27
2023-05-25T21:17:50.837Z,13.65
2023-05-25T21:20:21.673Z,13.55
2023-05-25T21:22:50.487Z,18.48
2023-05-25T21:25:19.637Z,16.48
2023-05-25T21:27:48.409Z,13.52
2023-05-25T21:30:19.376Z,15.18
2023-05-25T21:32:48.597Z,14.93
2023-05-25T21:35:18.195Z,15.27
2023-05-25T21:37:48.331Z,14.88
2023-05-25T21:40:17.695Z,15.70
2023-05-25T21:42:47.079Z,15.85
2023-05-25T21:45:17.348Z,15.95
2023-05-25T21:47:46.227Z,14.70
2023-05-25T21:50:15.320Z,17.10
2023-05-25T21:52:44.278Z,15.05
2023-05-25T21:55:14.763Z,14.63
2023-05-25T21:57:43.958Z,13.95
2023-05-25T22:00:14.887Z,13.90
2023-05-25T22:02:44.745Z,13.43
2023-05-25T22:05:15.656Z,10.88
2023-05-25T22:07:44.455Z,10.20
2023-05-25T22:10:15.052Z,10.70
2023-05-25T22:12:44.429Z,9.55
2023-05-25T22:15:13.454Z,9.40
2023-05-25T22:17:42.212Z,9.48
2023-05-25T22:20:12.823Z,10.10
2023-05-25T22:22:42.367Z,11.07
2023-05-25T22:25:12.240Z,10.73
2023-05-25T22:27:42.355Z,10.65
2023-05-25T22:30:12.721Z,10.50
2023-05-25T22:32:41.534Z,10.13
2023-05-25T22:35:10.949Z,9.40
2023-05-25T22:37:39.694Z,9.23
2023-05-25T22:40:10.257Z,10.50
2023-05-25T22:42:39.051Z,8.73
2023-05-25T22:45:10.972Z,9.13
2023-05-25T22:47:39.764Z,10.45
2023-05-25T22:50:10.078Z,9.68
2023-05-25T22:52:38.877Z,11.65
2023-05-25T22:55:09.226Z,10.95
2023-05-25T22:57:38.145Z,11.00
2023-05-25T23:00:10.274Z,10.05
2023-05-25T23:02:39.062Z,11.93
2023-05-25T23:05:09.798Z,12.05
2023-05-25T23:07:38.608Z,13.18
2023-05-25T23:10:09.677Z,11.50
2023-05-25T23:12:38.410Z,13.32
2023-05-25T23:15:11.003Z,13.07
2023-05-25T23:17:39.862Z,14.05
2023-05-25T23:20:10.630Z,12.73
2023-05-25T23:22:39.459Z,12.05
2023-05-25T23:25:10.151Z,12.18
2023-05-25T23:27:39.081Z,11.27
2023-05-25T23:30:11.813Z,12.40
2023-05-25T23:32:40.594Z,11.90
2023-05-25T23:35:10.646Z,10.90
2023-05-25T23:37:39.343Z,10.85
2023-05-25T23:40:09.800Z,9.73
2023-05-25T23:42:45.331Z,11.00
2023-05-25T23:45:15.741Z,10.25
2023-05-25T23:47:44.569Z,9.82
2023-05-25T23:50:32.074Z,12.52
2023-05-25T23:53:00.849Z,8.90
2023-05-25T23:55:29.903Z,9.23
2023-05-25T23:57:58.636Z,8.50
